Airfield :
LOGIN :

Register | Disclaimer

   EN    FR    IT 

 










Legend :    VFR   Marginal VFR   IFR   Intensive IFR   Very Intensive IFR
Visi :
Ceiling :
>= 8 km
>= 3000ft
5 to 8 km
1000 to 3000 ft
1500m to 5 km
500 to 1000 ft
800 to 1500m
200 to 500 ft
< 800m
< 200 ft
Symbols :   Thunderstorms  Fog  Heavy snow  Heavy precipitations  Wind > 20 kt
SIGMETs :     Misc.  Thunderstorms  Icing  Turbulence  Mountain Waves  Volcanic Ashes







- Airport Elevation : 268 ft
- IATA code : BFS
- Download approach charts


EGAA - Belfast Aldergrove

CURRENT METAR :
  • 251420Z 13011KT 9999 -SHRA BKN012 11/08 Q0994

EXPIRED METARs :
  • 251350Z 13010KT 9999 FEW016 SCT022 BKN027 11/08 Q0994
  • 251320Z 14012KT 9999 SCT016 SCT023 BKN029 11/07 Q0994
  • 251250Z 12011KT 9999 SCT015 BKN020 12/08 Q0994
  • 251220Z 12010KT 9999 BKN014 BKN018 10/07 Q0994
  • 251150Z 12011KT 9999 SCT016 SCT021 BKN027 10/07 Q0994
  • 251120Z 12010KT 9999 -RA BKN020 BKN029 11/08 Q0994

TAF TAF EGAA
Valid from the 25 at 12:00 until the 26 at 12:00 UTC


251101Z 2512/2612 12012KT 9999 SCT025
PROB30
TEMPO 2512/2517 5000 SHRA BKN014 BKN020CB
TEMPO 2517/2612 BKN012
BECMG 2600/2603 18008KT
PROB30
TEMPO 2607/2612 7000 RA BKN008
BECMG 2608/2612 24012KT
No reported NOTAMs for that airfield.



MET'MAP, your aeronautical weather chart ! - Copyright ORBIFLY December 2007 - Disclaimer

ORBIFLY MET'MAP TEAM :

Programming & Development : Alexandra Zaïnal
Concept & Development : Baudouin d'Aumeries
Co-Development & Prog : Marc-Olivier Méhu
Technical & hardware support : Manuel Goepfert

Contact : metmap@orbifly.com




SOURCES & CREDITS :

   NOAA